Latest Weather Observations for Hervey Bay

IDQ60801

Issued at 11:02 am EST Thursday 24 August 2017 (issued every 30 minutes, with the page automatically refreshed every 10 minutes)

About weather observations | Map of weather stations | Latest weather observations for QLD | Other Formats
Station Details ID: 040405 Name: HERVEY BAY AIRPORT Lat: -25.32 Lon: 152.88 Height: 12.98 m
Data from the previous 72 hours. | See also: Recent months at Hervey Bay
Date/Time
EST
Temp
°C
App
Temp
°C
Dew
Point
°C
Rel
Hum
%
Delta-T
°C
Wind Press
QNH
hPa
Press
MSL
hPa
Rain since
9am
mm
Dir  Spd
km/h
Gust
km/h
Spd
kts
Gust
kts
24/11:00am 23.6 21.6 15.4 60 4.9 NNW 20 32 11 17 1017.4 1017.3 0.0
24/10:30am 23.6 21.5 15.1 59 5.1 N 20 30 11 16 1017.7 1017.6 0.0
24/10:00am 23.3 21.1 14.8 59 5.0 NNW 20 32 11 17 1018.0 1018.0 0.0
24/09:30am 23.3 21.3 15.6 62 4.6 NNW 20 28 11 15 1018.3 1018.3 0.0
24/09:00am 22.2 21.0 16.0 68 3.7 NNW 17 22 9 12 1018.5 1018.5 0.0
24/08:30am 22.2 20.5 15.8 67 3.8 N 19 26 10 14 1018.2 1018.2 0.0
24/08:00am 21.3 19.8 15.4 69 3.5 N 17 26 9 14 1018.3 1018.3 0.0
24/07:30am 21.2 20.8 16.2 73 3.0 N 13 20 7 11 1018.0 1018.0 0.0
24/07:00am 20.5 20.6 16.5 78 2.4 N 11 15 6 8 1017.7 1017.6 0.0
24/06:30am 19.7 19.2 16.0 79 2.2 N 13 20 7 11 1017.6 1017.5 0.0
24/06:00am 19.4 19.2 15.7 79 2.2 N 11 15 6 8 1017.4 1017.3 0.0
24/05:30am 19.3 19.0 15.4 78 2.3 N 11 17 6 9 1017.1 1017.0 0.0
24/05:00am 19.5 18.8 15.4 77 2.4 N 13 20 7 11 1017.0 1016.9 0.0
24/04:30am 19.7 19.1 15.6 77 2.4 N 13 17 7 9 1017.0 1016.9 0.0
24/04:00am 19.6 19.2 16.3 81 2.0 N 13 20 7 11 1017.1 1017.0 0.0
24/03:30am 19.4 19.1 16.4 83 1.8 N 13 19 7 10 1016.9 1016.8 0.0
24/03:00am 19.5 19.4 16.9 85 1.6 N 13 19 7 10 1017.0 1016.9 0.0
24/02:30am 19.2 19.4 16.8 86 1.4 N 11 15 6 8 1017.2 1017.1 0.0
24/02:00am 19.2 19.4 16.8 86 1.4 N 11 13 6 7 1017.7 1017.6 0.0
24/01:30am 19.2 19.8 16.8 86 1.4 N 9 13 5 7 1018.0 1018.0 0.0
24/01:00am 19.2 19.9 17.0 87 1.3 N 9 15 5 8 1018.2 1018.2 0.0
24/12:30am 18.9 19.5 16.7 87 1.3 N 9 13 5 7 1018.4 1018.4 0.0
24/12:00am 19.0 20.0 16.8 87 1.3 N 7 9 4 5 1018.5 1018.5 0.0
 
Date/Time
EST
Temp
°C
App
Temp
°C
Dew
Point
°C
Rel
Hum
%
Delta-T
°C
Wind Press
QNH
hPa
Press
MSL
hPa
Rain since
9am
mm
Dir  Spd
km/h
Gust
km/h
Spd
kts
Gust
kts
23/11:30pm 19.2 19.8 16.8 86 1.4 N 9 11 5 6 1018.6 1018.6 0.0
23/11:00pm 19.3 19.9 16.9 86 1.4 N 9 15 5 8 1018.7 1018.7 0.0
23/10:30pm 19.6 19.9 17.0 85 1.6 N 11 15 6 8 1018.9 1018.9 0.0
23/10:00pm 19.7 20.0 17.1 85 1.6 N 11 13 6 7 1018.8 1018.8 0.0
23/09:30pm 19.6 19.8 16.8 84 1.7 N 11 15 6 8 1018.7 1018.7 0.0
23/09:00pm 19.7 19.6 16.9 84 1.7 N 13 19 7 10 1018.7 1018.7 0.0
23/08:30pm 19.7 19.4 16.5 82 1.9 N 13 15 7 8 1018.7 1018.7 0.0
23/08:00pm 19.9 19.7 16.7 82 1.9 N 13 17 7 9 1018.6 1018.6 0.0
23/07:30pm 20.0 20.2 16.8 82 1.9 N 11 17 6 9 1018.5 1018.5 0.0
23/07:00pm 20.0 19.8 16.8 82 1.9 N 13 17 7 9 1018.3 1018.3 0.0
23/06:30pm 19.9 20.0 16.5 81 2.0 N 11 17 6 9 1018.2 1018.2 0.0
23/06:00pm 20.1 19.7 16.3 79 2.3 N 13 17 7 9 1018.0 1018.0 0.0
23/05:30pm 20.5 20.1 16.3 77 2.5 N 13 19 7 10 1017.9 1017.8 0.0
23/05:00pm 21.3 20.6 16.3 73 3.0 N 15 20 8 11 1017.7 1017.6 0.0
23/04:30pm 21.9 20.3 16.0 69 3.6 N 19 26 10 14 1017.4 1017.3 0.0
23/04:00pm 22.7 20.9 16.0 66 4.0 N 20 30 11 16 1017.4 1017.3 0.0
23/03:30pm 22.9 21.0 15.7 64 4.3 N 20 28 11 15 1017.4 1017.3 0.0
23/03:00pm 23.0 20.0 15.8 64 4.3 NNE 26 33 14 18 1017.6 1017.5 0.0
23/02:30pm 23.5 21.7 16.1 63 4.5 N 20 28 11 15 1017.8 1017.7 0.0
23/02:00pm 23.3 21.3 15.6 62 4.6 N 20 30 11 16 1018.2 1018.2 0.0
23/01:30pm 23.4 21.3 15.2 60 4.9 NNW 20 32 11 17 1018.4 1018.4 0.0
23/01:00pm 23.6 21.6 15.4 60 4.9 NNW 20 28 11 15 1018.7 1018.7 0.0
23/12:30pm 23.2 20.6 15.0 60 4.9 N 22 30 12 16 1019.0 1019.0 0.0
23/12:00pm 23.9 22.0 15.7 60 4.9 NNW 20 30 11 16 1019.3 1019.3 0.0
23/11:30am 24.3 22.6 16.3 61 4.9 NNW 20 30 11 16 1019.8 1019.8 0.0
23/11:00am 23.4 21.3 15.2 60 4.9 NNW 20 28 11 15 1020.5 1020.5 0.0
23/10:30am 24.2 23.2 16.7 63 4.6 NNW 17 24 9 13 1020.8 1020.8 0.0
23/10:00am 23.4 22.4 15.7 62 4.6 NNW 15 22 8 12 1021.0 1021.0 0.0
23/09:30am 23.0 21.4 16.1 65 4.2 NW 19 28 10 15 1021.0 1021.0 0.0
23/09:00am 22.4 20.8 16.0 67 3.9 NNW 19 28 10 15 1021.0 1021.0 0.0
23/08:30am 21.4 22.5 18.0 81 2.1 NNW 9 15 5 8 1021.0 1021.0 0.0
23/08:00am 19.1 20.4 17.1 88 1.2 W 6 9 3 5 1020.9 1020.9 0.0
23/07:33am 17.5 18.3 15.8 90 1.0 SSW 6 7 3 4 1020.5 1020.5 0.0
23/07:30am 17.2 18.2 15.4 89 1.1 SSW 4 7 2 4 1020.5 1020.5 0.0
23/07:27am 17.1 18.5 15.3 89 1.0 SW 2 7 1 4 1020.5 1020.5 0.0
23/07:08am 16.4 16.6 14.6 89 1.0 SSW 7 9 4 5 1020.4 1020.4 0.0
23/07:00am 16.3 16.4 14.5 89 1.0 SSW 7 9 4 5 1020.4 1020.4 0.0
23/06:48am 16.3 16.0 14.3 88 1.1 SSW 9 11 5 6 1020.2 1020.2 0.0
23/06:30am 15.5 15.2 13.3 87 1.2 SSW 7 9 4 5 1020.1 1020.1 0.0
23/06:00am 15.1 14.8 12.8 86 1.3 WNW 6 7 3 4 1019.9 1019.9 0.0
23/05:30am 16.8 17.0 14.1 84 1.5 NW 6 7 3 4 1019.6 1019.6 0.0
23/05:00am 18.3 18.9 15.4 83 1.7 WNW 6 7 3 4 1019.4 1019.4 0.0
23/04:30am 19.4 19.8 16.2 82 1.9 NNW 9 13 5 7 1019.2 1019.2 0.0
23/04:00am 19.5 19.5 16.3 82 1.9 NNW 11 17 6 9 1019.2 1019.2 0.0
23/03:30am 19.5 19.2 16.5 83 1.8 N 13 19 7 10 1019.0 1019.0 0.0
23/03:00am 19.5 19.2 16.5 83 1.8 N 13 17 7 9 1019.0 1019.0 0.0
23/02:30am 19.5 19.1 16.3 82 1.9 N 13 19 7 10 1019.0 1019.0 0.0
23/02:00am 19.8 19.2 16.6 82 1.9 N 15 20 8 11 1019.1 1019.1 0.0
23/01:30am 19.5 19.3 16.7 84 1.7 N 13 17 7 9 1019.2 1019.2 0.0
23/01:00am 19.4 19.2 16.8 85 1.6 N 13 17 7 9 1019.4 1019.4 0.0
23/12:30am 19.3 19.5 16.7 85 1.6 N 11 15 6 8 1019.7 1019.7 0.0
23/12:00am 19.4 19.9 16.6 84 1.7 N 9 15 5 8 1019.8 1019.8 0.0
 
Date/Time
EST
Temp
°C
App
Temp
°C
Dew
Point
°C
Rel
Hum
%
Delta-T
°C
Wind Press
QNH
hPa
Press
MSL
hPa
Rain since
9am
mm
Dir  Spd
km/h
Gust
km/h
Spd
kts
Gust
kts
22/11:30pm 19.4 19.5 16.4 83 1.8 N 11 15 6 8 1020.0 1020.0 0.0
22/11:00pm 19.5 20.0 16.5 83 1.8 N 9 13 5 7 1020.0 1020.0 0.0
22/10:30pm 19.4 19.5 16.6 84 1.7 N 11 15 6 8 1020.1 1020.1 0.0
22/10:00pm 19.2 19.7 16.6 85 1.6 N 9 13 5 7 1020.0 1020.0 0.0
22/09:30pm 18.9 19.3 16.3 85 1.6 N 9 13 5 7 1019.9 1019.9 0.0
22/09:00pm 19.2 19.6 16.4 84 1.7 N 9 11 5 6 1019.8 1019.8 0.0
22/08:30pm 19.4 19.8 16.4 83 1.8 N 9 13 5 7 1019.7 1019.7 0.0
22/08:00pm 19.5 19.5 16.3 82 1.9 N 11 17 6 9 1019.2 1019.2 0.0
22/07:30pm 19.6 19.7 16.4 82 1.9 N 11 17 6 9 1019.1 1019.1 0.0
22/07:00pm 19.6 19.6 16.3 81 2.0 N 11 17 6 9 1018.8 1018.8 0.0
22/06:30pm 19.8 19.4 16.3 80 2.1 N 13 17 7 9 1018.3 1018.3 0.0
22/06:00pm 19.8 19.7 15.9 78 2.3 NNE 11 17 6 9 1018.1 1018.1 0.0
22/05:30pm 20.4 19.5 15.8 75 2.7 N 15 20 8 11 1017.7 1017.6 0.0
22/05:00pm 20.9 19.9 15.7 72 3.1 N 15 20 8 11 1017.5 1017.4 0.0
22/04:30pm 21.6 20.3 15.9 70 3.4 N 17 24 9 13 1017.3 1017.2 0.0
22/04:00pm 21.9 20.0 15.3 66 3.9 N 19 28 10 15 1017.1 1017.0 0.0
22/03:30pm 21.8 19.8 14.9 65 4.1 N 19 28 10 15 1017.1 1017.0 0.0
22/03:00pm 22.3 19.8 15.2 64 4.2 N 22 28 12 15 1017.1 1017.0 0.0
22/02:30pm 22.6 20.5 15.2 63 4.4 NNE 20 30 11 16 1017.1 1017.0 0.0
22/02:00pm 22.2 20.1 14.6 62 4.5 NNE 19 26 10 14 1017.3 1017.2 0.0
22/01:30pm 23.0 21.3 14.8 60 4.9 N 17 24 9 13 1017.6 1017.5 0.0
22/01:00pm 23.1 21.2 15.2 61 4.7 N 19 26 10 14 1017.9 1017.8 0.0
22/12:30pm 23.0 21.3 14.8 60 4.9 N 17 22 9 12 1018.4 1018.4 0.0
22/12:00pm 23.3 21.5 15.4 61 4.7 N 19 26 10 14 1018.9 1018.9 0.0
22/11:30am 22.5 20.8 14.6 61 4.7 N 17 24 9 13 1019.5 1019.5 0.0
22/11:00am 22.6 21.8 15.0 62 4.5 NNW 13 20 7 11 1020.0 1020.0 0.0
22/10:30am 22.2 21.2 14.6 62 4.5 NNW 13 20 7 11 1020.2 1020.2 0.0
22/10:00am 22.2 21.3 14.8 63 4.4 N 13 17 7 9 1020.3 1020.3 0.0
22/09:30am 21.7 21.7 15.3 67 3.8 N 9 15 5 8 1020.6 1020.6 0.0
22/09:00am 21.0 22.4 17.8 82 2.0 ENE 7 9 4 5 1020.6 1020.6 1.0
22/08:30am 19.5 21.0 17.6 89 1.2 NE 6 9 3 5 1020.6 1020.6 1.0
22/08:00am 17.4 19.4 15.9 91 0.9 CALM 0 0 0 0 1020.5 1020.5 1.0
22/07:30am 15.9 17.3 14.4 91 0.9 CALM 0 0 0 0 1020.3 1020.3 1.0
22/07:00am 14.1 14.9 12.7 91 0.8 CALM 0 0 0 0 1020.0 1020.0 1.0
22/06:30am 13.7 14.4 12.1 90 0.9 CALM 0 0 0 0 1019.7 1019.7 1.0
22/06:00am 14.3 15.1 12.7 90 0.9 CALM 0 0 0 0 1019.4 1019.4 0.8
22/05:48am 14.4 13.6 12.8 90 0.9 ESE 9 11 5 6 1019.4 1019.4 0.8
22/05:30am 13.9 13.9 12.3 90 0.9 NW 4 11 2 6 1019.6 1019.6 0.8
22/05:22am 13.7 11.9 12.1 90 0.9 WNW 13 22 7 12 1019.6 1019.6 0.4
22/05:00am 13.1 12.2 11.5 90 0.8 SW 7 9 4 5 1019.1 1019.1 0.2
22/04:53am 13.2 12.6 11.6 90 0.9 S 6 9 3 5 1019.1 1019.1 0.2
22/04:35am 13.3 12.4 11.5 89 1.0 SSW 7 11 4 6 1019.0 1019.0 0.2
22/04:30am 13.1 12.4 11.3 89 1.0 SSW 6 7 3 4 1019.0 1019.0 0.0
22/04:00am 13.1 11.8 11.3 89 0.9 SSW 9 9 5 5 1018.7 1018.7 0.0
22/03:30am 12.4 12.2 10.5 88 1.0 SW 2 7 1 4 1018.5 1018.5 0.0
22/03:00am 12.2 12.3 10.3 88 1.0 CALM 0 0 0 0 1018.5 1018.5 0.0
22/02:30am 11.8 11.8 9.9 88 1.0 CALM 0 0 0 0 1018.7 1018.7 0.0
22/02:00am 11.5 11.4 9.6 88 1.0 CALM 0 0 0 0 1019.0 1019.0 0.0
22/01:30am 10.8 10.5 8.7 87 1.0 CALM 0 0 0 0 1019.1 1019.1 0.0
22/01:00am 10.2 9.7 8.0 86 1.1 CALM 0 0 0 0 1019.2 1019.2 0.0
22/12:30am 10.1 9.6 7.9 86 1.1 CALM 0 0 0 0 1019.3 1019.3 0.0
22/12:00am 10.3 9.9 8.1 86 1.1 CALM 0 0 0 0 1019.2 1019.2 0.0
 
Date/Time
EST
Temp
°C
App
Temp
°C
Dew
Point
°C
Rel
Hum
%
Delta-T
°C
Wind Press
QNH
hPa
Press
MSL
hPa
Rain since
9am
mm
Dir  Spd
km/h
Gust
km/h
Spd
kts
Gust
kts
21/11:30pm 10.7 10.3 8.3 85 1.2 CALM 0 0 0 0 1019.3 1019.3 0.0
21/11:00pm 10.8 10.4 8.2 84 1.3 CALM 0 0 0 0 1019.3 1019.3 0.0
21/10:30pm 11.1 10.7 8.3 83 1.4 CALM 0 0 0 0 1019.4 1019.4 0.0
21/10:00pm 11.5 10.8 8.5 82 1.5 ENE 2 6 1 3 1019.5 1019.5 0.0
21/09:30pm 11.8 10.7 8.3 79 1.7 NE 4 6 2 3 1019.5 1019.5 0.0
21/09:00pm 12.9 10.8 8.4 74 2.2 NNE 9 11 5 6 1019.2 1019.2 0.0
21/08:30pm 14.1 12.1 8.7 70 2.7 NE 9 11 5 6 1019.3 1019.3 0.0
21/08:00pm 16.7 15.6 10.8 68 3.1 NNE 7 9 4 5 1019.3 1019.3 0.0
21/07:30pm 17.5 16.2 11.1 66 3.5 NE 9 13 5 7 1019.0 1019.0 0.0
21/07:00pm 18.1 16.9 11.7 66 3.5 ENE 9 11 5 6 1018.7 1018.7 0.0
21/06:30pm 18.4 16.8 11.7 65 3.7 ENE 11 13 6 7 1018.7 1018.7 0.0
21/06:00pm 18.3 16.7 11.4 64 3.8 ENE 11 13 6 7 1018.9 1018.9 0.0
21/05:30pm 19.0 17.7 11.3 61 4.2 NE 9 11 5 6 1018.6 1018.6 0.0
21/05:00pm 20.0 17.9 11.2 57 4.8 NE 13 15 7 8 1018.6 1018.6 0.0
21/04:30pm 20.1 17.7 11.3 57 4.8 ESE 15 19 8 10 1018.6 1018.6 0.0
21/04:00pm 21.0 19.3 12.4 58 4.8 ESE 13 17 7 9 1018.5 1018.5 0.0
21/03:30pm 20.2 18.3 11.9 59 4.6 ESE 13 20 7 11 1018.6 1018.6 0.0
21/03:00pm 21.0 18.5 11.1 53 5.4 ESE 15 20 8 11 1018.7 1018.7 0.0
21/02:30pm 21.5 18.8 11.8 54 5.4 ESE 17 24 9 13 1018.7 1018.7 0.0
21/02:00pm 21.2 18.7 11.2 53 5.5 E 15 22 8 12 1019.0 1019.0 0.0
21/01:30pm 21.1 19.0 12.3 57 5.0 ESE 15 20 8 11 1019.3 1019.3 0.0
21/01:00pm 21.1 18.1 12.0 56 5.1 ESE 19 26 10 14 1019.7 1019.7 0.0
21/12:30pm 21.0 19.0 11.6 55 5.2 ESE 13 19 7 10 1019.8 1019.8 0.0
21/12:00pm 20.7 18.6 12.4 59 4.7 E 15 24 8 13 1020.5 1020.5 0.0
21/11:30am 19.7 17.5 12.0 61 4.3 E 15 20 8 11 1020.9 1020.9 0.0

Other Formats:

Comma delimited format used in spreadsheet applications
http://www.bom.gov.au/fwo/IDQ60801/IDQ60801.95565.axf

JavaScript Object Notation format (JSON) in row-major order
http://www.bom.gov.au/fwo/IDQ60801/IDQ60801.95565.json